Latest Coastal Weather Observations for Montague Island

IDN60701

Issued at 1:01 pm EST Thursday 27 April 2017 (issued every 10 minutes, with the page automatically refreshed every 10 minutes)

About coastal observations | Map of coastal stations | Coastal observations for NSW | Marine services | Other Formats
Station Details ID: 069017 Name: MONTAGUE ISLAND LIGHTHOUSE Lat: -36.25 Lon: 150.23 Height: 52.0 m
Data from the previous 72 hours. | See also: Recent months at Montague Island
Date/Time
EST
Temp
°C
Wind Pressure Rain since
9am
mm
Weather Cloud Vis
km
Sea
Height
m
Swell
Dir  Spd
kts
Gust
kts
hPa Trend Height
m
Period
s
Dir
27/01:00pm 17.1 SW 17 22 1014.7 - 0.0 - - - - - - -
27/12:30pm 17.0 SW 18 23 1014.9 - 0.0 - - - - - - -
27/12:00pm 16.8 SW 17 22 1015.1 - 0.0 - - - - - - -
27/11:30am 16.4 SW 16 22 1015.1 - 0.0 - - - - - - -
27/11:00am 16.4 SW 16 20 1015.0 - 0.0 - - - - - - -
27/10:30am 15.9 SW 16 21 1015.0 - 0.0 - - - - - - -
27/10:00am 15.5 SW 17 22 1014.9 - 0.0 - - - - - - -
27/09:30am 14.8 SW 18 22 1014.9 - 0.0 - - - - - - -
27/09:00am 14.2 SW 18 21 1014.8 - 2.0 - - - - - - -
27/08:30am 13.5 SW 19 22 1014.4 - 2.0 - - - - - - -
27/08:00am 12.8 WSW 19 23 1013.9 - 2.0 - - - - - - -
27/07:30am 12.2 WSW 19 22 1013.5 - 2.0 - - - - - - -
27/07:00am 12.3 WSW 18 23 1013.2 - 2.0 - - - - - - -
27/06:30am 11.9 WSW 17 25 1012.7 - 2.0 - - - - - - -
27/06:00am 11.9 WSW 19 22 1012.6 - 2.0 - - - - - - -
27/05:30am 11.9 WSW 17 22 1012.4 - 2.0 - - - - - - -
27/05:00am 11.8 WSW 18 22 1012.3 - 2.0 - - - - - - -
27/04:30am 11.8 WSW 16 21 1012.0 - 2.0 - - - - - - -
27/04:00am 11.7 WSW 16 22 1011.9 - 2.0 - - - - - - -
27/03:30am 11.8 WSW 17 22 1011.8 - 2.0 - - - - - - -
27/03:00am 11.7 WSW 14 19 1011.7 - 2.0 - - - - - - -
27/02:30am 11.7 WSW 13 17 1012.0 - 2.0 - - - - - - -
27/02:00am 11.7 WSW 15 17 1011.8 - 2.0 - - - - - - -
27/01:30am 11.9 WSW 15 20 1011.6 - 2.0 - - - - - - -
27/01:00am 12.2 WSW 17 20 1011.4 - 2.0 - - - - - - -
27/12:30am 12.5 SW 18 23 1011.3 - 2.0 - - - - - - -
27/12:00am 12.7 WSW 19 23 1011.0 - 2.0 - - - - - - -
 
Date/Time
EST
Temp
°C
Wind Pressure Rain since
9am
mm
Weather Cloud Vis
km
Sea
Height
m
Swell
Dir  Spd
kts
Gust
kts
hPa Trend Height
m
Period
s
Dir
26/11:30pm 13.0 SW 21 27 1010.9 - 2.0 - - - - - - -
26/11:00pm 13.2 SW 23 27 1010.8 - 2.0 - - - - - - -
26/10:30pm 13.3 SW 20 24 1010.6 - 2.0 - - - - - - -
26/10:00pm 13.6 WSW 21 25 1010.5 - 2.0 - - - - - - -
26/09:30pm 13.5 SW 19 23 1010.5 - 2.0 - - - - - - -
26/09:00pm 13.6 SW 19 24 1010.0 - 2.0 - - - - - - -
26/08:30pm 13.7 SW 21 27 1009.3 - 2.0 - - - - - - -
26/08:00pm 14.0 SW 22 28 1008.7 - 2.0 - - - - - - -
26/07:30pm 14.3 SW 21 28 1008.1 - 2.0 - - - - - - -
26/07:00pm 14.8 SW 17 22 1007.8 - 2.0 - - - - - - -
26/06:30pm 14.8 SW 19 24 1007.1 - 1.8 - - - - - - -
26/06:00pm 15.1 SW 15 20 1006.7 - 1.8 - - - - - - -
26/05:30pm 15.1 SW 15 18 1006.1 - 1.8 - - - - - - -
26/05:00pm 14.9 WSW 14 17 1005.9 - 1.8 - - - - - - -
26/04:30pm 14.5 SW 11 13 1005.7 - 1.8 - - - - - - -
26/04:00pm 13.5 SW 12 15 1005.1 - 1.8 - - - - - - -
26/03:30pm 13.5 SW 17 22 1004.3 - 1.4 - - - - - - -
26/03:00pm 13.1 SW 19 22 1003.8 - 1.4 Rain - - - - - -
26/02:30pm 13.9 SW 25 31 1002.6 - 0.4 - - - - - - -
26/02:13pm 16.6 SSW 23 29 1001.7 - 0.0 - - - - - - -
26/02:00pm 17.6 SSE 14 25 1001.9 - 0.0 - - - - - - -
26/01:57pm 18.0 SSE 9 21 1002.3 - 0.0 - - - - - - -
26/01:30pm 19.6 NNW 4 6 1002.0 - 0.0 - - - - - - -
26/01:00pm 19.9 NNW 5 8 1002.0 - 0.0 - - - - - - -
26/12:30pm 21.4 NNW 6 8 1002.0 - 0.0 - - - - - - -
26/12:00pm 19.8 NNW 6 8 1002.3 - 0.0 - - - - - - -
26/11:30am 19.6 NW 6 8 1002.6 - 0.0 - - - - - - -
26/11:00am 19.6 NW 6 8 1002.5 - 0.0 - - - - - - -
26/10:30am 20.0 NW 7 8 1002.7 - 0.0 - - - - - - -
26/10:00am 19.1 NW 7 9 1002.8 - 0.0 - - - - - - -
26/09:30am 19.6 NW 8 9 1003.0 - 0.0 - - - - - - -
26/09:00am 18.6 NW 6 8 1003.1 - 0.6 - - - - - - -
26/08:30am 17.5 NW 9 12 1003.4 - 0.6 - - - - - - -
26/08:00am 18.2 NW 5 8 1003.6 - 0.6 - - - - - - -
26/07:30am 17.8 WNW 4 6 1003.6 - 0.6 - - - - - - -
26/07:00am 17.3 NW 7 9 1003.4 - 0.6 - - - - - - -
26/06:30am 16.7 NW 7 9 1003.1 - 0.4 - - - - - - -
26/06:00am 16.8 NW 6 8 1003.1 - 0.4 - - - - - - -
26/05:30am 16.7 NW 7 9 1003.1 - 0.4 - - - - - - -
26/05:00am 16.9 NW 7 9 1003.3 - 0.4 - - - - - - -
26/04:30am 17.1 NW 5 7 1003.4 - 0.4 - - - - - - -
26/04:00am 17.4 NW 4 6 1003.5 - 0.4 - - - - - - -
26/03:30am 18.0 WNW 4 6 1003.8 - 0.4 - - - - - - -
26/03:00am 19.0 E 6 8 1003.9 - 0.4 - - - - - - -
26/02:30am 19.1 ENE 5 7 1004.1 - 0.4 - - - - - - -
26/02:00am 19.1 E 6 8 1004.2 - 0.4 - - - - - - -
26/01:30am 19.2 ESE 5 7 1004.6 - 0.4 - - - - - - -
26/01:00am 19.1 ESE 5 7 1004.5 - 0.4 - - - - - - -
26/12:30am 19.0 SE 6 7 1004.7 - 0.4 - - - - - - -
26/12:00am 19.1 SE 6 8 1004.8 - 0.4 - - - - - - -
 
Date/Time
EST
Temp
°C
Wind Pressure Rain since
9am
mm
Weather Cloud Vis
km
Sea
Height
m
Swell
Dir  Spd
kts
Gust
kts
hPa Trend Height
m
Period
s
Dir
25/11:30pm 19.1 SSE 6 8 1004.9 - 0.4 - - - - - - -
25/11:00pm 19.1 S 5 7 1005.0 - 0.4 - - - - - - -
25/10:30pm 19.2 SW 6 8 1004.9 - 0.4 - - - - - - -
25/10:00pm 19.8 WNW 11 14 1004.7 - 0.4 - - - - - - -
25/09:30pm 19.6 NW 8 11 1004.5 - 0.4 - - - - - - -
25/09:00pm 19.6 NW 10 12 1004.4 - 0.4 - - - - - - -
25/08:30pm 19.8 WNW 9 12 1004.6 - 0.4 - - - - - - -
25/08:00pm 20.2 WNW 4 7 1004.9 - 0.4 - - - - - - -
25/07:30pm 19.8 WNW 4 6 1004.8 - 0.4 - - - - - - -
25/07:00pm 20.2 SW 4 6 1004.6 - 0.4 - - - - - - -
25/06:30pm 20.6 WNW 4 6 1004.2 - 0.4 - - - - - - -
25/06:00pm 21.1 NW 7 10 1003.6 - 0.4 - - - - - - -
25/05:30pm 21.3 NW 7 9 1003.4 - 0.4 - - - - - - -
25/05:00pm 21.8 NNW 10 12 1003.0 - 0.4 - - - - - - -
25/04:30pm 22.5 N 14 18 1002.8 - 0.4 - - - - - - -
25/04:00pm 22.2 NNW 13 19 1002.8 - 0.4 - - - - - - -
25/03:30pm 22.1 N 15 19 1002.7 - 0.4 - - - - - - -
25/03:00pm 21.6 N 15 19 1002.6 - 0.4 - - - - - - -
25/02:30pm 21.7 N 13 17 1002.9 - 0.4 - - - - - - -
25/02:00pm 20.7 NNE 13 17 1003.4 - 0.4 - - - - - - -
25/01:30pm 21.0 N 13 16 1004.1 - 0.4 - - - - - - -
25/01:00pm 20.6 NNE 16 19 1004.7 - 0.4 - - - - - - -
25/12:30pm 20.4 NNE 15 18 1005.4 - 0.4 - - - - - - -
25/12:00pm 20.2 NNE 15 18 1006.4 - 0.4 Recent precip. - - - - - -
25/11:30am 20.1 NNE 16 19 1007.4 - 0.4 - - - - - - -
25/11:00am 19.9 NNE 17 20 1008.1 - 0.2 - - - - - - -
25/10:30am 20.2 NNE 17 20 1008.2 - 0.0 - - - - - - -
25/10:00am 20.4 N 15 18 1008.6 - 0.0 - - - - - - -
25/09:30am 20.3 N 13 17 1009.1 - 0.0 - - - - - - -
25/09:00am 19.7 N 12 15 1009.4 - 0.0 - - - - - - -
25/08:30am 19.8 N 13 17 1009.7 - 0.0 - - - - - - -
25/08:00am 19.8 N 12 15 1009.9 - 0.0 - - - - - - -
25/07:30am 20.4 N 11 15 1010.0 - 0.0 - - - - - - -
25/07:00am 19.9 N 10 13 1010.0 - 0.0 - - - - - - -
25/06:30am 19.6 N 10 13 1010.1 - 0.0 - - - - - - -
25/06:00am 19.2 N 11 14 1010.3 - 0.0 - - - - - - -
25/05:30am 19.3 N 12 15 1010.4 - 0.0 - - - - - - -
25/05:00am 19.2 N 9 12 1010.7 - 0.0 - - - - - - -
25/04:30am 19.1 N 9 11 1011.1 - 0.0 - - - - - - -
25/04:00am 19.2 N 9 11 1011.3 - 0.0 - - - - - - -
25/03:30am 19.1 N 9 11 1011.5 - 0.0 - - - - - - -
25/03:00am 19.3 N 9 12 1012.0 - 0.0 - - - - - - -
25/02:30am 19.2 N 9 11 1012.4 - 0.0 - - - - - - -
25/02:00am 19.3 N 8 11 1012.8 - 0.0 - - - - - - -
25/01:30am 18.8 N 8 10 1013.4 - 0.0 - - - - - - -
25/01:00am 18.5 NNW 7 9 1014.0 - 0.0 - - - - - - -
25/12:30am 18.8 NNW 8 10 1014.4 - 0.0 - - - - - - -
25/12:00am 19.1 N 8 11 1014.8 - 0.0 - - - - - - -
 
Date/Time
EST
Temp
°C
Wind Pressure Rain since
9am
mm
Weather Cloud Vis
km
Sea
Height
m
Swell
Dir  Spd
kts
Gust
kts
hPa Trend Height
m
Period
s
Dir
24/11:30pm 19.0 N 9 10 1015.2 - 0.0 - - - - - - -
24/11:00pm 19.1 NNW 7 8 1015.7 - 0.0 - - - - - - -
24/10:30pm 19.2 N 7 9 1015.9 - 0.0 - - - - - - -
24/10:00pm 19.5 NNW 8 11 1016.4 - 0.0 - - - - - - -
24/09:30pm 20.1 N 11 15 1016.5 - 0.0 - - - - - - -
24/09:00pm 20.2 N 11 15 1016.7 - 0.0 - - - - - - -
24/08:30pm 20.5 N 10 13 1016.9 - 0.0 - - - - - - -
24/08:00pm 20.5 N 10 14 1016.9 - 0.0 - - - - - - -
24/07:30pm 20.6 N 10 13 1016.9 - 0.0 - - - - - - -
24/07:00pm 20.6 N 9 12 1017.0 - 0.0 - - - - - - -
24/06:30pm 20.6 NNE 11 13 1016.5 - 0.0 - - - - - - -
24/06:00pm 20.8 N 11 13 1016.7 - 0.0 - - - - - - -
24/05:30pm 20.9 NNE 11 13 1016.8 - 0.0 - - - - - - -
24/05:00pm 20.8 NNE 12 13 1016.6 - 0.0 - - - - - - -
24/04:30pm 20.7 NNE 12 13 1016.3 - 0.0 - - - - - - -
24/04:00pm 20.6 NNE 11 13 1016.4 - 0.0 - - - - - - -
24/03:30pm 21.1 NNE 11 14 1016.6 - 0.0 - - - - - - -
24/03:00pm 20.9 NNE 11 13 1016.8 - 0.0 - - - - - - -
24/02:30pm 21.1 NNE 11 13 1017.1 - 0.0 - - - - - - -
24/02:00pm 21.1 NNE 10 12 1017.3 - 0.0 - - - - - - -
24/01:30pm 21.0 NNE 9 11 1017.7 - 0.0 - - - - - - -

Other Formats:

Comma delimited format used in spreadsheet applications
http://www.bom.gov.au/fwo/IDN60701/IDN60701.94939.axf

JavaScript Object Notation format (JSON) in row-major order
http://www.bom.gov.au/fwo/IDN60701/IDN60701.94939.json